sensor_id;sensor_type;location;lat;lon;timestamp;temperature;humidity
16060;DHT22;8134;49.552;7.632;2023-12-20T15:05:16;7.10;99.90
16060;DHT22;8134;49.552;7.632;2023-12-20T15:07:43;7.10;99.90
16060;DHT22;8134;49.552;7.632;2023-12-20T15:10:08;7.10;99.90
16060;DHT22;8134;49.552;7.632;2023-12-20T15:12:34;7.10;99.90
16060;DHT22;8134;49.552;7.632;2023-12-20T15:15:00;7.00;99.90
16060;DHT22;8134;49.552;7.632;2023-12-20T15:17:25;7.20;99.90
16060;DHT22;8134;49.552;7.632;2023-12-20T15:19:52;7.10;99.90
16060;DHT22;8134;49.552;7.632;2023-12-20T15:22:17;7.20;99.90
16060;DHT22;8134;49.552;7.632;2023-12-20T15:24:43;7.10;99.90
16060;DHT22;8134;49.552;7.632;2023-12-20T15:27:10;7.10;99.90
16060;DHT22;8134;49.552;7.632;2023-12-20T15:29:36;7.10;99.90
16060;DHT22;8134;49.552;7.632;2023-12-20T15:32:02;7.10;99.90
16060;DHT22;8134;49.552;7.632;2023-12-20T15:34:29;7.10;99.90
16060;DHT22;8134;49.552;7.632;2023-12-20T15:36:54;7.00;99.90
16060;DHT22;8134;49.552;7.632;2023-12-20T15:39:20;7.20;99.90
16060;DHT22;8134;49.552;7.632;2023-12-20T15:41:46;7.10;99.90
16060;DHT22;8134;49.552;7.632;2023-12-20T15:44:11;7.10;99.90
16060;DHT22;8134;49.552;7.632;2023-12-20T15:46:37;7.10;99.90
16060;DHT22;8134;49.552;7.632;2023-12-20T15:49:03;7.10;99.90
16060;DHT22;8134;49.552;7.632;2023-12-20T15:51:29;7.20;99.90
16060;DHT22;8134;49.552;7.632;2023-12-20T15:53:55;7.20;99.90
16060;DHT22;8134;49.552;7.632;2023-12-20T15:56:20;7.10;99.90
16060;DHT22;8134;49.552;7.632;2023-12-20T15:58:46;7.10;99.90
16060;DHT22;8134;49.552;7.632;2023-12-20T16:01:17;7.10;99.90
16060;DHT22;8134;49.552;7.632;2023-12-20T16:03:42;7.00;99.90
16060;DHT22;8134;49.552;7.632;2023-12-20T16:06:08;7.10;99.90
16060;DHT22;8134;49.552;7.632;2023-12-20T16:08:34;7.10;99.90
16060;DHT22;8134;49.552;7.632;2023-12-20T16:10:59;7.10;99.90
16060;DHT22;8134;49.552;7.632;2023-12-20T16:13:25;7.20;99.90
16060;DHT22;8134;49.552;7.632;2023-12-20T16:15:50;7.10;99.90
16060;DHT22;8134;49.552;7.632;2023-12-20T16:18:16;7.20;99.90
16060;DHT22;8134;49.552;7.632;2023-12-20T16:20:41;7.20;99.90
16060;DHT22;8134;49.552;7.632;2023-12-20T16:23:07;7.10;99.90
16060;DHT22;8134;49.552;7.632;2023-12-20T16:25:32;7.20;99.90
16060;DHT22;8134;49.552;7.632;2023-12-20T16:27:58;7.20;99.90
16060;DHT22;8134;49.552;7.632;2023-12-20T16:30:23;7.20;99.90
16060;DHT22;8134;49.552;7.632;2023-12-20T16:32:49;7.20;99.90
16060;DHT22;8134;49.552;7.632;2023-12-20T16:35:16;7.30;99.90
16060;DHT22;8134;49.552;7.632;2023-12-20T16:37:41;7.20;99.90
16060;DHT22;8134;49.552;7.632;2023-12-20T16:40:07;7.30;99.90
16060;DHT22;8134;49.552;7.632;2023-12-20T16:42:33;7.20;99.90
16060;DHT22;8134;49.552;7.632;2023-12-20T16:44:58;7.20;99.90
16060;DHT22;8134;49.552;7.632;2023-12-20T16:47:24;7.20;99.90
16060;DHT22;8134;49.552;7.632;2023-12-20T16:49:50;7.20;99.90
16060;DHT22;8134;49.552;7.632;2023-12-20T16:52:17;7.20;99.90
16060;DHT22;8134;49.552;7.632;2023-12-20T16:54:42;7.20;99.90
16060;DHT22;8134;49.552;7.632;2023-12-20T16:57:08;7.20;99.90
16060;DHT22;8134;49.552;7.632;2023-12-20T16:59:33;7.30;99.90
16060;DHT22;8134;49.552;7.632;2023-12-20T17:01:59;7.30;99.90
16060;DHT22;8134;49.552;7.632;2023-12-20T17:04:27;7.20;99.90
16060;DHT22;8134;49.552;7.632;2023-12-20T17:06:52;7.30;99.90
16060;DHT22;8134;49.552;7.632;2023-12-20T17:09:18;7.20;99.90
16060;DHT22;8134;49.552;7.632;2023-12-20T17:11:43;7.30;99.90
16060;DHT22;8134;49.552;7.632;2023-12-20T17:14:09;7.40;99.90
16060;DHT22;8134;49.552;7.632;2023-12-20T17:16:36;7.20;99.90
16060;DHT22;8134;49.552;7.632;2023-12-20T17:19:10;7.40;99.90
16060;DHT22;8134;49.552;7.632;2023-12-20T17:25:26;7.20;99.90
16060;DHT22;8134;49.552;7.632;2023-12-20T17:27:51;7.20;99.90
16060;DHT22;8134;49.552;7.632;2023-12-20T17:30:16;7.20;99.90
16060;DHT22;8134;49.552;7.632;2023-12-20T17:32:42;7.20;99.90
16060;DHT22;8134;49.552;7.632;2023-12-20T17:35:16;7.20;99.90
16060;DHT22;8134;49.552;7.632;2023-12-20T17:37:42;7.20;99.90
16060;DHT22;8134;49.552;7.632;2023-12-20T17:40:07;7.20;99.90
16060;DHT22;8134;49.552;7.632;2023-12-20T17:42:33;7.20;99.90
16060;DHT22;8134;49.552;7.632;2023-12-20T17:44:59;7.10;99.90
16060;DHT22;8134;49.552;7.632;2023-12-20T17:47:24;7.20;99.90
16060;DHT22;8134;49.552;7.632;2023-12-20T17:49:50;7.30;99.90
16060;DHT22;8134;49.552;7.632;2023-12-20T17:52:15;7.20;99.90
16060;DHT22;8134;49.552;7.632;2023-12-20T17:54:40;7.20;99.90
16060;DHT22;8134;49.552;7.632;2023-12-20T17:57:06;7.20;99.90
16060;DHT22;8134;49.552;7.632;2023-12-20T17:59:31;7.40;99.90
16060;DHT22;8134;49.552;7.632;2023-12-20T18:01:57;7.20;99.90
16060;DHT22;8134;49.552;7.632;2023-12-20T18:04:23;7.50;99.90
16060;DHT22;8134;49.552;7.632;2023-12-20T18:06:49;7.30;99.90
16060;DHT22;8134;49.552;7.632;2023-12-20T18:09:15;7.30;99.90
16060;DHT22;8134;49.552;7.632;2023-12-20T18:11:40;7.40;99.90
16060;DHT22;8134;49.552;7.632;2023-12-20T18:14:06;7.30;99.90
16060;DHT22;8134;49.552;7.632;2023-12-20T18:16:31;7.30;99.90
16060;DHT22;8134;49.552;7.632;2023-12-20T18:18:57;7.40;99.90
16060;DHT22;8134;49.552;7.632;2023-12-20T18:21:22;7.20;99.90
16060;DHT22;8134;49.552;7.632;2023-12-20T18:23:48;7.30;99.90
16060;DHT22;8134;49.552;7.632;2023-12-20T18:26:13;7.30;99.90
16060;DHT22;8134;49.552;7.632;2023-12-20T18:28:39;7.40;99.90
16060;DHT22;8134;49.552;7.632;2023-12-20T18:31:04;7.30;99.90
16060;DHT22;8134;49.552;7.632;2023-12-20T18:33:30;7.30;99.90
16060;DHT22;8134;49.552;7.632;2023-12-20T18:35:59;7.30;99.90
16060;DHT22;8134;49.552;7.632;2023-12-20T18:38:24;7.40;99.90
16060;DHT22;8134;49.552;7.632;2023-12-20T18:40:54;7.40;99.90
16060;DHT22;8134;49.552;7.632;2023-12-20T18:43:19;7.30;99.90
16060;DHT22;8134;49.552;7.632;2023-12-20T18:45:46;7.40;99.90
16060;DHT22;8134;49.552;7.632;2023-12-20T18:48:11;7.30;99.90
16060;DHT22;8134;49.552;7.632;2023-12-20T18:50:37;7.30;99.90
16060;DHT22;8134;49.552;7.632;2023-12-20T18:53:02;7.30;99.90
16060;DHT22;8134;49.552;7.632;2023-12-20T18:55:28;7.40;99.90
16060;DHT22;8134;49.552;7.632;2023-12-20T18:57:53;7.40;99.90
16060;DHT22;8134;49.552;7.632;2023-12-20T19:00:19;7.40;99.90
16060;DHT22;8134;49.552;7.632;2023-12-20T19:02:46;7.40;99.90
16060;DHT22;8134;49.552;7.632;2023-12-20T19:05:11;7.30;99.90
16060;DHT22;8134;49.552;7.632;2023-12-20T19:07:37;7.30;99.90
16060;DHT22;8134;49.552;7.632;2023-12-20T19:10:02;7.40;99.90
16060;DHT22;8134;49.552;7.632;2023-12-20T19:12:28;7.30;99.90
16060;DHT22;8134;49.552;7.632;2023-12-20T19:14:54;7.40;99.90
16060;DHT22;8134;49.552;7.632;2023-12-20T19:17:19;7.40;99.90
16060;DHT22;8134;49.552;7.632;2023-12-20T19:19:45;7.40;99.90
16060;DHT22;8134;49.552;7.632;2023-12-20T19:22:11;7.40;99.90
16060;DHT22;8134;49.552;7.632;2023-12-20T19:24:37;7.40;99.90
16060;DHT22;8134;49.552;7.632;2023-12-20T19:27:02;7.50;99.90
16060;DHT22;8134;49.552;7.632;2023-12-20T19:29:28;7.40;99.90
16060;DHT22;8134;49.552;7.632;2023-12-20T19:31:53;7.50;99.90
16060;DHT22;8134;49.552;7.632;2023-12-20T19:34:19;7.40;99.90
16060;DHT22;8134;49.552;7.632;2023-12-20T19:36:45;7.40;99.90
16060;DHT22;8134;49.552;7.632;2023-12-20T19:39:10;7.60;99.90
16060;DHT22;8134;49.552;7.632;2023-12-20T19:41:36;7.50;99.90
16060;DHT22;8134;49.552;7.632;2023-12-20T19:44:01;7.50;99.90
16060;DHT22;8134;49.552;7.632;2023-12-20T19:46:28;7.50;99.90
16060;DHT22;8134;49.552;7.632;2023-12-20T19:48:53;7.50;99.90
16060;DHT22;8134;49.552;7.632;2023-12-20T19:51:19;7.60;99.90
16060;DHT22;8134;49.552;7.632;2023-12-20T19:53:46;7.70;99.90
16060;DHT22;8134;49.552;7.632;2023-12-20T19:56:12;7.50;99.90
16060;DHT22;8134;49.552;7.632;2023-12-20T19:58:38;7.50;99.90
16060;DHT22;8134;49.552;7.632;2023-12-20T20:01:04;7.50;99.90
16060;DHT22;8134;49.552;7.632;2023-12-20T20:03:30;7.70;99.90
16060;DHT22;8134;49.552;7.632;2023-12-20T20:05:55;7.60;99.90
16060;DHT22;8134;49.552;7.632;2023-12-20T20:08:21;7.60;99.90
16060;DHT22;8134;49.552;7.632;2023-12-20T20:10:46;7.60;99.90
16060;DHT22;8134;49.552;7.632;2023-12-20T20:13:12;7.60;99.90
16060;DHT22;8134;49.552;7.632;2023-12-20T20:15:37;7.60;99.90
16060;DHT22;8134;49.552;7.632;2023-12-20T20:18:03;7.60;99.90
16060;DHT22;8134;49.552;7.632;2023-12-20T20:20:28;7.50;99.90
16060;DHT22;8134;49.552;7.632;2023-12-20T20:22:54;7.50;99.90
16060;DHT22;8134;49.552;7.632;2023-12-20T20:25:19;7.70;99.90
16060;DHT22;8134;49.552;7.632;2023-12-20T20:27:45;7.70;99.90
16060;DHT22;8134;49.552;7.632;2023-12-20T20:30:11;7.50;99.90
16060;DHT22;8134;49.552;7.632;2023-12-20T20:32:36;7.50;99.90
16060;DHT22;8134;49.552;7.632;2023-12-20T20:35:02;7.50;99.90
16060;DHT22;8134;49.552;7.632;2023-12-20T20:37:27;7.50;99.90
16060;DHT22;8134;49.552;7.632;2023-12-20T20:39:53;7.60;99.90
16060;DHT22;8134;49.552;7.632;2023-12-20T20:42:18;7.60;99.90
16060;DHT22;8134;49.552;7.632;2023-12-20T20:44:44;7.50;99.90
16060;DHT22;8134;49.552;7.632;2023-12-20T20:47:09;7.60;99.90
16060;DHT22;8134;49.552;7.632;2023-12-20T20:49:35;7.60;99.90
16060;DHT22;8134;49.552;7.632;2023-12-20T20:52:00;7.60;99.90
16060;DHT22;8134;49.552;7.632;2023-12-20T20:54:26;7.60;99.90
16060;DHT22;8134;49.552;7.632;2023-12-20T20:56:51;7.50;99.90
16060;DHT22;8134;49.552;7.632;2023-12-20T20:59:18;7.60;99.90
16060;DHT22;8134;49.552;7.632;2023-12-20T21:01:43;7.60;99.90
16060;DHT22;8134;49.552;7.632;2023-12-20T21:04:09;7.70;99.90
16060;DHT22;8134;49.552;7.632;2023-12-20T21:06:34;7.60;99.90
16060;DHT22;8134;49.552;7.632;2023-12-20T21:09:00;7.60;99.90
16060;DHT22;8134;49.552;7.632;2023-12-20T21:11:25;7.60;99.90
16060;DHT22;8134;49.552;7.632;2023-12-20T21:13:51;7.60;99.90
16060;DHT22;8134;49.552;7.632;2023-12-20T21:16:17;7.60;99.90
16060;DHT22;8134;49.552;7.632;2023-12-20T21:18:42;7.60;99.90
16060;DHT22;8134;49.552;7.632;2023-12-20T21:21:09;7.60;99.90
16060;DHT22;8134;49.552;7.632;2023-12-20T21:23:35;7.60;99.90
16060;DHT22;8134;49.552;7.632;2023-12-20T21:26:00;7.60;99.90
16060;DHT22;8134;49.552;7.632;2023-12-20T21:28:33;7.60;99.90
16060;DHT22;8134;49.552;7.632;2023-12-20T21:30:59;7.60;99.90
16060;DHT22;8134;49.552;7.632;2023-12-20T21:33:24;7.60;99.90
16060;DHT22;8134;49.552;7.632;2023-12-20T21:35:50;7.70;99.90
16060;DHT22;8134;49.552;7.632;2023-12-20T21:38:15;7.50;99.90
16060;DHT22;8134;49.552;7.632;2023-12-20T21:40:41;7.60;99.90
16060;DHT22;8134;49.552;7.632;2023-12-20T21:43:06;7.70;99.90
16060;DHT22;8134;49.552;7.632;2023-12-20T21:45:32;7.60;99.90
16060;DHT22;8134;49.552;7.632;2023-12-20T21:47:58;7.60;99.90
16060;DHT22;8134;49.552;7.632;2023-12-20T21:50:23;7.60;99.90
16060;DHT22;8134;49.552;7.632;2023-12-20T21:52:49;7.60;99.90
16060;DHT22;8134;49.552;7.632;2023-12-20T21:55:14;7.70;99.90
16060;DHT22;8134;49.552;7.632;2023-12-20T21:57:41;7.70;99.90
16060;DHT22;8134;49.552;7.632;2023-12-20T22:00:07;7.60;99.90
16060;DHT22;8134;49.552;7.632;2023-12-20T22:02:33;7.70;99.90
16060;DHT22;8134;49.552;7.632;2023-12-20T22:04:58;7.70;99.90
16060;DHT22;8134;49.552;7.632;2023-12-20T22:07:24;7.70;99.90
16060;DHT22;8134;49.552;7.632;2023-12-20T22:09:50;7.70;99.90
16060;DHT22;8134;49.552;7.632;2023-12-20T22:12:15;7.70;99.90
16060;DHT22;8134;49.552;7.632;2023-12-20T22:14:41;7.80;99.90
16060;DHT22;8134;49.552;7.632;2023-12-20T22:17:06;7.70;99.90
16060;DHT22;8134;49.552;7.632;2023-12-20T22:19:32;7.70;99.90
16060;DHT22;8134;49.552;7.632;2023-12-20T22:21:57;7.70;99.90
16060;DHT22;8134;49.552;7.632;2023-12-20T22:24:23;7.80;99.90
16060;DHT22;8134;49.552;7.632;2023-12-20T22:26:48;7.70;99.90
16060;DHT22;8134;49.552;7.632;2023-12-20T22:29:14;7.70;99.90
16060;DHT22;8134;49.552;7.632;2023-12-20T22:31:39;7.70;99.90
16060;DHT22;8134;49.552;7.632;2023-12-20T22:34:05;7.70;99.90
16060;DHT22;8134;49.552;7.632;2023-12-20T22:36:30;7.70;99.90
16060;DHT22;8134;49.552;7.632;2023-12-20T22:38:56;7.70;99.90
16060;DHT22;8134;49.552;7.632;2023-12-20T22:41:22;7.70;99.90
16060;DHT22;8134;49.552;7.632;2023-12-20T22:43:48;7.70;99.90
16060;DHT22;8134;49.552;7.632;2023-12-20T22:46:14;7.70;99.90
16060;DHT22;8134;49.552;7.632;2023-12-20T22:48:39;7.70;99.90
16060;DHT22;8134;49.552;7.632;2023-12-20T22:51:05;7.80;99.90
16060;DHT22;8134;49.552;7.632;2023-12-20T22:53:31;7.70;99.90
16060;DHT22;8134;49.552;7.632;2023-12-20T22:55:56;7.70;99.90
16060;DHT22;8134;49.552;7.632;2023-12-20T22:58:22;7.80;99.90
16060;DHT22;8134;49.552;7.632;2023-12-20T23:00:48;7.70;99.90
16060;DHT22;8134;49.552;7.632;2023-12-20T23:03:13;7.80;99.90
16060;DHT22;8134;49.552;7.632;2023-12-20T23:05:39;7.80;99.90
16060;DHT22;8134;49.552;7.632;2023-12-20T23:08:04;7.70;99.90
16060;DHT22;8134;49.552;7.632;2023-12-20T23:10:30;7.70;99.90
16060;DHT22;8134;49.552;7.632;2023-12-20T23:12:57;7.70;99.90
16060;DHT22;8134;49.552;7.632;2023-12-20T23:15:23;7.70;99.90
16060;DHT22;8134;49.552;7.632;2023-12-20T23:17:48;7.70;99.90
16060;DHT22;8134;49.552;7.632;2023-12-20T23:20:14;7.80;99.90
16060;DHT22;8134;49.552;7.632;2023-12-20T23:22:40;7.70;99.90
16060;DHT22;8134;49.552;7.632;2023-12-20T23:25:06;7.70;99.90
16060;DHT22;8134;49.552;7.632;2023-12-20T23:27:31;7.70;99.90
16060;DHT22;8134;49.552;7.632;2023-12-20T23:29:57;7.70;99.90
16060;DHT22;8134;49.552;7.632;2023-12-20T23:32:22;7.70;99.90
16060;DHT22;8134;49.552;7.632;2023-12-20T23:34:48;7.70;99.90
16060;DHT22;8134;49.552;7.632;2023-12-20T23:37:13;7.70;99.90
16060;DHT22;8134;49.552;7.632;2023-12-20T23:39:39;7.60;99.90
16060;DHT22;8134;49.552;7.632;2023-12-20T23:42:05;7.70;99.90
16060;DHT22;8134;49.552;7.632;2023-12-20T23:44:30;7.70;99.90
16060;DHT22;8134;49.552;7.632;2023-12-20T23:46:56;7.70;99.90
16060;DHT22;8134;49.552;7.632;2023-12-20T23:49:21;7.60;99.90
16060;DHT22;8134;49.552;7.632;2023-12-20T23:51:49;7.70;99.90
16060;DHT22;8134;49.552;7.632;2023-12-20T23:54:14;7.70;99.90
16060;DHT22;8134;49.552;7.632;2023-12-20T23:56:40;7.80;99.90
16060;DHT22;8134;49.552;7.632;2023-12-20T23:59:05;7.70;99.90
